Time;durP1;ratioP1;P1;durP2;ratioP2;P2;SDS_P1;SDS_P2;PMS_P1;PMS_P2;Temp;Humidity;BMP_temperature;BMP_pressure;BME280_temperature;BME280_humidity;BME280_pressure;Samples;Min_cycle;Max_cycle;Signal;HPM_P1;HPM_P2
2023/12/01 05:24:17;;;;;;;65.22;31.00;;;;;;;;;;7621508;19;20350;-73
2023/12/01 05:26:50;;;;;;;56.15;30.10;;;;;;;;;;7588928;19;20053;-72
2023/12/01 05:29:26;;;;;;;65.88;31.23;;;;;;;;;;7590617;19;20098;-72
2023/12/01 05:31:59;;;;;;;64.60;32.60;;;;;;;;;;7577172;19;20557;-73
2023/12/01 05:34:33;;;;;;;63.00;32.70;;;;;;;;;;7585272;19;20025;-72
2023/12/01 05:37:05;;;;;;;58.72;29.85;;;;;;;;;;7590009;19;20014;-71
2023/12/01 05:39:39;;;;;;;67.93;32.45;;;;;;;;;;7595688;19;20637;-73
2023/12/01 05:42:11;;;;;;;54.13;30.00;;;;;;;;;;7575280;19;20022;-72
2023/12/01 05:44:44;;;;;;;51.00;28.02;;;;;;;;;;7600217;19;20545;-72
2023/12/01 05:47:16;;;;;;;53.97;28.90;;;;;;;;;;7605096;19;20022;-72
2023/12/01 05:49:50;;;;;;;52.05;28.00;;;;;;;;;;7593559;19;20071;-72
2023/12/01 05:52:23;;;;;;;;;;;;;;;;;;7607642;19;20014;-72
2023/12/01 05:54:55;;;;;;;74.97;33.40;;;;;;;;;;7589780;19;20006;-71
2023/12/01 05:57:28;;;;;;;53.30;28.77;;;;;;;;;;7599149;19;20021;-73
2023/12/01 06:00:01;;;;;;;53.42;27.92;;;;;;;;;;7594172;19;20022;-73
2023/12/01 06:02:43;;;;;;;48.17;25.70;;;;;;;;;;7559642;19;20023;-72
2023/12/01 06:05:17;;;;;;;69.18;30.77;;;;;;;;;;7565945;19;20097;-72
2023/12/01 06:07:54;;;;;;;55.22;29.02;;;;;;;;;;7574996;19;20011;-73
2023/12/01 06:10:27;;;;;;;54.10;28.17;;;;;;;;;;7599752;19;20014;-72
2023/12/01 06:13:00;;;;;;;;;;;;;;;;;;7562886;19;20018;-72
2023/12/01 06:15:33;;;;;;;45.80;24.80;;;;;;;;;;7605267;19;19922;-72
2023/12/01 06:18:05;;;;;;;58.63;28.17;;;;;;;;;;7597860;19;20022;-72
2023/12/01 06:20:39;;;;;;;71.45;30.80;;;;;;;;;;7587238;19;20937;-71
2023/12/01 06:23:11;;;;;;;53.17;27.80;;;;;;;;;;7572502;19;20588;-72
2023/12/01 06:25:46;;;;;;;41.00;23.85;;;;;;;;;;7572486;19;20015;-71
2023/12/01 06:28:19;;;;;;;55.42;28.40;;;;;;;;;;7580524;19;20375;-70
2023/12/01 06:30:53;;;;;;;56.53;28.13;;;;;;;;;;7575186;19;20059;-73
2023/12/01 06:33:26;;;;;;;41.70;23.42;;;;;;;;;;7577716;19;20048;-71
2023/12/01 06:35:59;;;;;;;48.17;25.35;;;;;;;;;;7569524;19;20022;-73
2023/12/01 06:38:32;;;;;;;39.93;23.13;;;;;;;;;;7582606;19;20018;-73
2023/12/01 06:41:05;;;;;;;83.28;34.63;;;;;;;;;;7583409;19;20358;-72
2023/12/01 06:43:38;;;;;;;35.70;21.55;;;;;;;;;;7575578;19;20021;-72
2023/12/01 06:46:10;;;;;;;49.10;24.33;;;;;;;;;;7596663;19;20014;-72
2023/12/01 06:48:43;;;;;;;49.77;23.27;;;;;;;;;;7601156;19;20020;-71
2023/12/01 06:51:16;;;;;;;39.17;22.35;;;;;;;;;;7590968;19;20290;-72
2023/12/01 06:53:48;;;;;;;39.08;23.45;;;;;;;;;;7583095;19;20018;-71
2023/12/01 06:56:21;;;;;;;39.50;22.60;;;;;;;;;;7576557;19;20026;-72
2023/12/01 06:58:55;;;;;;;47.13;25.63;;;;;;;;;;7600410;19;21115;-73
2023/12/01 07:01:28;;;;;;;86.32;32.42;;;;;;;;;;7584068;19;20125;-71
2023/12/01 07:04:07;;;;;;;42.75;24.65;;;;;;;;;;7580235;19;20089;-72
2023/12/01 07:06:46;;;;;;;55.00;27.77;;;;;;;;;;7592872;19;20040;-72
2023/12/01 07:09:19;;;;;;;98.47;37.10;;;;;;;;;;7594938;19;20023;-73
2023/12/01 07:11:52;;;;;;;95.18;35.45;;;;;;;;;;7581455;19;20025;-73
2023/12/01 07:14:24;;;;;;;59.28;28.20;;;;;;;;;;7582373;19;20060;-72
2023/12/01 07:16:57;;;;;;;44.40;24.10;;;;;;;;;;7588386;19;20015;-72
2023/12/01 07:19:35;;;;;;;51.05;25.27;;;;;;;;;;7596515;19;20018;-71
2023/12/01 07:22:10;;;;;;;108.22;33.42;;;;;;;;;;7584267;19;20026;-73
2023/12/01 07:24:43;;;;;;;49.90;24.58;;;;;;;;;;7576315;19;22951;-73
2023/12/01 07:27:16;;;;;;;71.47;30.90;;;;;;;;;;7562301;19;20682;-72
2023/12/01 07:29:49;;;;;;;34.25;20.13;;;;;;;;;;7588223;19;20014;-72
2023/12/01 07:32:22;;;;;;;;;;;;;;;;;;7572890;19;20015;-72
2023/12/01 07:34:55;;;;;;;47.22;24.75;;;;;;;;;;7587700;19;19926;-72
2023/12/01 07:37:28;;;;;;;52.10;26.05;;;;;;;;;;7582406;19;20063;-74
2023/12/01 07:40:01;;;;;;;39.17;21.42;;;;;;;;;;7583128;19;20103;-71
2023/12/01 07:42:34;;;;;;;49.40;24.30;;;;;;;;;;7582390;19;20097;-71
2023/12/01 07:45:07;;;;;;;59.63;28.83;;;;;;;;;;7575965;19;20025;-73
2023/12/01 07:47:43;;;;;;;45.08;24.20;;;;;;;;;;7580499;19;20018;-73
2023/12/01 07:50:16;;;;;;;54.00;26.35;;;;;;;;;;7584233;19;20376;-75
2023/12/01 07:52:50;;;;;;;51.15;25.23;;;;;;;;;;7582651;19;20023;-72
2023/12/01 07:55:22;;;;;;;49.88;23.75;;;;;;;;;;7584890;19;20782;-75
2023/12/01 07:57:55;;;;;;;44.70;24.02;;;;;;;;;;7586445;19;20019;-74
2023/12/01 08:00:28;;;;;;;62.30;26.70;;;;;;;;;;7585469;19;20049;-74
2023/12/01 08:03:01;;;;;;;46.20;22.67;;;;;;;;;;7581431;19;20055;-71
2023/12/01 08:05:36;;;;;;;40.25;21.35;;;;;;;;;;7589149;19;20023;-75
2023/12/01 08:08:09;;;;;;;38.20;19.90;;;;;;;;;;7581850;19;20010;-75
2023/12/01 08:10:43;;;;;;;37.00;20.20;;;;;;;;;;7590957;19;20022;-73
2023/12/01 08:13:15;;;;;;;40.50;20.45;;;;;;;;;;7573159;19;20006;-74
2023/12/01 08:15:48;;;;;;;34.05;18.70;;;;;;;;;;7572959;19;20388;-75
2023/12/01 08:18:21;;;;;;;32.47;17.95;;;;;;;;;;7565934;19;20018;-73
2023/12/01 08:20:54;;;;;;;41.67;21.55;;;;;;;;;;7593666;19;20052;-74
2023/12/01 08:23:27;;;;;;;51.47;21.57;;;;;;;;;;7591333;19;20021;-73
2023/12/01 08:26:00;;;;;;;29.55;17.42;;;;;;;;;;7592508;19;20019;-74
2023/12/01 08:28:33;;;;;;;28.35;16.70;;;;;;;;;;7582262;19;20014;-74
2023/12/01 08:31:05;;;;;;;43.57;19.90;;;;;;;;;;7572575;19;20014;-73
2023/12/01 08:33:38;;;;;;;57.60;23.03;;;;;;;;;;7573050;19;20393;-73
2023/12/01 08:36:11;;;;;;;33.40;18.38;;;;;;;;;;7575995;19;20044;-73
2023/12/01 08:38:49;;;;;;;28.77;17.50;;;;;;;;;;7554055;19;21499;-73
2023/12/01 08:41:23;;;;;;;31.92;18.98;;;;;;;;;;7587682;19;20030;-72
2023/12/01 08:43:56;;;;;;;31.40;17.88;;;;;;;;;;7595403;19;20803;-73
2023/12/01 08:46:29;;;;;;;25.42;15.23;;;;;;;;;;7583956;19;21033;-73
2023/12/01 08:49:02;;;;;;;32.83;17.83;;;;;;;;;;7590518;19;20601;-72
2023/12/01 08:51:35;;;;;;;;;;;;;;;;;;7583421;19;20023;-74
2023/12/01 08:54:07;;;;;;;;;;;;;;;;;;7583020;19;19919;-72
2023/12/01 08:56:41;;;;;;;;;;;;;;;;;;7594757;19;19919;-73
2023/12/01 08:59:14;;;;;;;;;;;;;;;;;;7601718;19;20434;-72
2023/12/01 09:01:47;;;;;;;;;;;;;;;;;;7597107;19;19926;-72
2023/12/01 09:04:21;;;;;;;;;;;;;;;;;;7585266;19;19918;-71
2023/12/01 09:06:53;;;;;;;;;;;;;;;;;;7581126;19;19933;-72
2023/12/01 09:09:26;;;;;;;;;;;;;;;;;;7588889;19;19929;-73
2023/12/01 09:11:59;;;;;;;;;;;;;;;;;;7569025;19;19953;-72
2023/12/01 09:14:34;;;;;;;;;;;;;;;;;;7581113;19;19954;-72
2023/12/01 09:17:07;;;;;;;;;;;;;;;;;;7565174;19;20313;-72
2023/12/01 09:19:39;;;;;;;;;;;;;;;;;;7566286;19;19926;-72
2023/12/01 09:22:12;;;;;;;;;;;;;;;;;;7585833;19;19934;-71
2023/12/01 09:24:45;;;;;;;;;;;;;;;;;;7570559;19;19918;-72
2023/12/01 09:27:18;;;;;;;;;;;;;;;;;;7580111;19;19915;-71
2023/12/01 09:29:50;;;;;;;;;;;;;;;;;;7583969;19;19956;-73
2023/12/01 09:32:23;;;;;;;;;;;;;;;;;;7589014;19;21003;-72
2023/12/01 09:34:55;;;;;;;;;;;;;;;;;;7588744;19;20277;-73
2023/12/01 09:37:28;;;;;;;;;;;;;;;;;;7591127;19;19914;-72
2023/12/01 09:40:02;;;;;;;;;;;;;;;;;;7576775;19;20361;-72
2023/12/01 09:42:34;;;;;;;;;;;;;;;;;;7573495;19;20344;-72
2023/12/01 09:45:09;;;;;;;;;;;;;;;;;;7567086;19;19923;-71
2023/12/01 09:47:42;;;;;;;;;;;;;;;;;;7568726;19;19930;-73
2023/12/01 09:50:15;;;;;;;;;;;;;;;;;;7573651;19;19944;-73
2023/12/01 09:52:51;;;;;;;;;;;;;;;;;;7569946;19;19932;-71
2023/12/01 09:55:23;;;;;;;;;;;;;;;;;;7566880;19;20571;-72
2023/12/01 09:57:56;;;;;;;;;;;;;;;;;;7578246;19;19923;-72
2023/12/01 10:00:28;;;;;;;;;;;;;;;;;;7588911;19;19923;-72
2023/12/01 10:03:01;;;;;;;;;;;;;;;;;;7590164;19;19918;-72
2023/12/01 10:05:34;;;;;;;;;;;;;;;;;;7595103;19;20357;-72
2023/12/01 10:08:07;;;;;;;;;;;;;;;;;;7602974;19;20452;-72
2023/12/01 10:10:40;;;;;;;;;;;;;;;;;;7605382;19;19923;-73
2023/12/01 10:13:13;;;;;;;;;;;;;;;;;;7614400;19;19982;-73
2023/12/01 10:15:46;;;;;;;;;;;;;;;;;;7610838;19;19939;-71
2023/12/01 10:18:19;;;;;;;;;;;;;;;;;;7604389;19;19919;-72
2023/12/01 10:20:54;;;;;;;;;;;;;;;;;;7617609;19;20412;-72
2023/12/01 10:23:30;;;;;;;;;;;;;;;;;;7602877;19;19925;-72
2023/12/01 10:26:07;;;;;;;;;;;;;;;;;;7612580;19;20851;-72
2023/12/01 10:28:40;;;;;;;;;;;;;;;;;;7613536;19;19948;-73
2023/12/01 10:31:13;;;;;;;;;;;;;;;;;;7611098;19;19943;-73
2023/12/01 10:33:46;;;;;;;;;;;;;;;;;;7595663;19;19923;-73
2023/12/01 14:03:22;;;;;;;50.38;21.52;;;;;;;;;;7597830;19;20362;-73
2023/12/01 14:06:03;;;;;;;45.65;21.23;;;;;;;;;;7611833;19;20032;-71
2023/12/01 14:08:36;;;;;;;47.63;21.52;;;;;;;;;;7619449;19;20014;-73
2023/12/01 14:11:09;;;;;;;48.60;23.83;;;;;;;;;;7626150;19;20026;-73
2023/12/01 14:13:41;;;;;;;55.10;24.40;;;;;;;;;;7624106;19;20019;-73
2023/12/01 14:16:14;;;;;;;45.30;22.27;;;;;;;;;;7617421;19;20669;-71
2023/12/01 14:18:48;;;;;;;51.90;22.85;;;;;;;;;;7605948;19;20626;-73
2023/12/01 14:21:21;;;;;;;50.67;22.70;;;;;;;;;;7621076;19;20015;-73
2023/12/01 14:23:54;;;;;;;49.75;22.90;;;;;;;;;;7603016;19;20015;-72
2023/12/01 14:26:27;;;;;;;49.65;22.55;;;;;;;;;;7619858;19;20062;-71
2023/12/01 14:29:00;;;;;;;47.17;21.55;;;;;;;;;;7626300;19;20014;-71
2023/12/01 14:31:32;;;;;;;41.53;20.80;;;;;;;;;;7619994;19;20025;-72
2023/12/01 14:34:06;;;;;;;56.83;26.25;;;;;;;;;;7620854;19;20018;-71
2023/12/01 14:36:39;;;;;;;;;;;;;;;;;;7621282;19;20029;-71
2023/12/01 14:39:12;;;;;;;49.40;21.50;;;;;;;;;;7622167;19;20228;-71
2023/12/01 14:41:45;;;;;;;53.77;22.93;;;;;;;;;;7631738;19;20022;-72
2023/12/01 14:44:18;;;;;;;51.03;23.50;;;;;;;;;;7635531;19;20020;-71
2023/12/01 14:46:51;;;;;;;46.15;22.45;;;;;;;;;;7623212;19;20014;-70
2023/12/01 14:49:23;;;;;;;48.63;21.80;;;;;;;;;;7624608;19;20607;-71
2023/12/01 14:51:56;;;;;;;49.15;22.25;;;;;;;;;;7628627;19;20038;-71
2023/12/01 14:54:29;;;;;;;71.63;28.00;;;;;;;;;;7630866;19;20117;-71
2023/12/01 14:57:04;;;;;;;106.13;39.10;;;;;;;;;;7643835;19;20022;-71
2023/12/01 14:59:38;;;;;;;73.15;27.23;;;;;;;;;;7629572;19;20026;-71
2023/12/01 15:02:15;;;;;;;53.70;24.02;;;;;;;;;;7610338;19;20021;-71
2023/12/01 15:04:48;;;;;;;72.82;29.65;;;;;;;;;;7626971;19;20064;-71
2023/12/01 15:07:21;;;;;;;53.13;23.58;;;;;;;;;;7623006;19;20016;-71
2023/12/01 15:09:53;;;;;;;38.88;19.23;;;;;;;;;;7622456;19;20509;-71
2023/12/01 15:12:26;;;;;;;47.88;23.52;;;;;;;;;;7638816;19;20942;-71
2023/12/01 15:14:59;;;;;;;51.40;23.53;;;;;;;;;;7566596;19;20014;-72
2023/12/01 15:17:31;;;;;;;52.05;23.23;;;;;;;;;;7586871;19;20753;-71
2023/12/01 15:20:05;;;;;;;60.40;25.87;;;;;;;;;;7596566;19;20029;-71
2023/12/01 15:22:39;;;;;;;54.65;23.00;;;;;;;;;;7597990;19;20032;-72
2023/12/01 15:25:11;;;;;;;49.80;23.65;;;;;;;;;;7596384;19;20389;-71
2023/12/01 15:27:44;;;;;;;42.83;20.90;;;;;;;;;;7601765;19;20014;-72
2023/12/01 15:30:17;;;;;;;51.70;23.63;;;;;;;;;;7573383;19;20020;-72
2023/12/01 15:32:50;;;;;;;47.17;22.92;;;;;;;;;;7587590;19;20653;-73
2023/12/01 15:35:23;;;;;;;47.88;23.30;;;;;;;;;;7582749;19;20011;-73
2023/12/01 15:37:56;;;;;;;43.58;20.67;;;;;;;;;;7572612;19;20726;-73
2023/12/01 15:40:28;;;;;;;55.15;25.30;;;;;;;;;;7590873;19;20479;-73
2023/12/01 15:43:01;;;;;;;53.35;23.88;;;;;;;;;;7594880;19;20015;-73
2023/12/01 15:45:35;;;;;;;55.58;24.77;;;;;;;;;;7597470;19;20018;-73
2023/12/01 15:48:07;;;;;;;49.25;23.27;;;;;;;;;;7592513;19;20499;-73
2023/12/01 15:50:41;;;;;;;67.83;27.37;;;;;;;;;;7580627;19;20611;-72
2023/12/01 15:53:14;;;;;;;53.95;24.45;;;;;;;;;;7592573;19;20267;-73
2023/12/01 15:55:46;;;;;;;76.60;31.10;;;;;;;;;;7579122;19;20081;-73
2023/12/01 15:58:19;;;;;;;169.53;56.60;;;;;;;;;;7593180;19;20018;-72
2023/12/01 16:00:51;;;;;;;83.60;33.83;;;;;;;;;;7599366;19;20029;-73
2023/12/01 16:03:24;;;;;;;123.00;43.63;;;;;;;;;;7598161;19;20064;-73
2023/12/01 16:05:57;;;;;;;104.53;39.13;;;;;;;;;;7599750;19;20022;-73
2023/12/01 16:08:32;;;;;;;55.03;24.92;;;;;;;;;;7590749;19;20245;-73
2023/12/01 16:11:06;;;;;;;72.38;30.73;;;;;;;;;;7603758;19;20052;-73
2023/12/01 16:13:39;;;;;;;123.45;45.50;;;;;;;;;;7605837;19;20019;-74
2023/12/01 16:16:12;;;;;;;152.40;52.17;;;;;;;;;;7591683;19;20019;-73
2023/12/01 16:18:46;;;;;;;;;;;;;;;;;;7596291;19;20271;-73
2023/12/01 16:21:19;;;;;;;104.28;36.90;;;;;;;;;;7597260;19;19914;-73
2023/12/01 16:23:52;;;;;;;191.68;58.60;;;;;;;;;;7601691;19;20018;-72
2023/12/01 16:26:25;;;;;;;114.75;39.55;;;;;;;;;;7599558;19;20061;-72
2023/12/01 16:28:58;;;;;;;124.95;43.35;;;;;;;;;;7600367;19;20090;-73
2023/12/01 16:31:31;;;;;;;161.90;54.20;;;;;;;;;;7594174;19;20006;-73
2023/12/01 16:36:11;;;;;;;299.65;86.13;;;;;;;;;;7616639;19;20370;-71
2023/12/01 16:39:04;;;;;;;151.03;50.23;;;;;;;;;;7628897;19;20019;-71
2023/12/01 16:41:37;;;;;;;95.85;35.30;;;;;;;;;;7634736;19;20014;-70
2023/12/01 16:44:09;;;;;;;356.50;97.63;;;;;;;;;;7636191;19;20061;-70
2023/12/01 16:46:42;;;;;;;203.23;65.38;;;;;;;;;;7628083;19;20261;-71
2023/12/01 16:49:14;;;;;;;190.82;61.78;;;;;;;;;;7634757;19;20018;-71
2023/12/01 16:51:47;;;;;;;115.90;40.13;;;;;;;;;;7647385;19;20069;-70
2023/12/01 16:54:20;;;;;;;144.93;46.90;;;;;;;;;;7637199;19;20086;-71
2023/12/01 16:56:53;;;;;;;306.05;87.03;;;;;;;;;;7637704;19;20022;-70
2023/12/01 16:59:26;;;;;;;138.13;51.37;;;;;;;;;;7637210;19;20018;-72
2023/12/01 17:01:59;;;;;;;175.43;57.92;;;;;;;;;;7636031;19;20867;-70
2023/12/01 17:04:32;;;;;;;;;;;;;;;;;;7636810;19;20022;-71
2023/12/01 17:07:07;;;;;;;180.55;56.67;;;;;;;;;;7619876;19;19918;-70
2023/12/01 17:09:41;;;;;;;78.05;31.77;;;;;;;;;;7630966;19;20014;-71
2023/12/01 17:12:13;;;;;;;82.35;31.02;;;;;;;;;;7635090;19;20605;-70
2023/12/01 17:14:46;;;;;;;85.95;34.22;;;;;;;;;;7635205;19;20014;-71
2023/12/01 17:17:19;;;;;;;49.92;24.17;;;;;;;;;;7635304;19;20018;-71
2023/12/01 17:19:52;;;;;;;129.37;42.80;;;;;;;;;;7639741;19;20598;-71
2023/12/01 17:22:25;;;;;;;134.32;43.72;;;;;;;;;;7638970;19;20014;-71
2023/12/01 17:24:58;;;;;;;83.25;32.65;;;;;;;;;;7635227;19;21064;-70
2023/12/01 17:27:31;;;;;;;64.88;27.13;;;;;;;;;;7641157;19;20077;-71
2023/12/01 17:30:04;;;;;;;63.95;27.75;;;;;;;;;;7634550;19;20029;-71
2023/12/01 17:32:38;;;;;;;161.35;50.78;;;;;;;;;;7633633;19;20018;-72
2023/12/01 17:35:10;;;;;;;153.25;51.72;;;;;;;;;;7632905;19;20033;-70
2023/12/01 17:37:43;;;;;;;58.30;26.37;;;;;;;;;;7634716;19;20025;-71
2023/12/01 17:40:17;;;;;;;67.63;27.45;;;;;;;;;;7633983;19;20024;-70
2023/12/01 17:42:49;;;;;;;;;;;;;;;;;;7636069;19;20407;-70
2023/12/01 17:45:22;;;;;;;43.58;21.48;;;;;;;;;;7624375;19;19922;-71
2023/12/01 17:47:55;;;;;;;46.10;22.43;;;;;;;;;;7601247;19;21316;-70
2023/12/01 17:50:28;;;;;;;106.85;41.85;;;;;;;;;;7610885;19;20010;-71
2023/12/01 17:53:01;;;;;;;75.13;33.42;;;;;;;;;;7604362;19;20453;-71
2023/12/01 17:55:33;;;;;;;73.78;31.65;;;;;;;;;;7606571;19;20113;-71
2023/12/01 17:58:06;;;;;;;79.75;32.55;;;;;;;;;;7605379;19;20019;-71
2023/12/01 18:00:38;;;;;;;102.10;47.15;;;;;;;;;;7606283;19;20026;-70
2023/12/01 18:03:12;;;;;;;58.23;33.43;;;;;;;;;;7603951;19;20074;-71
2023/12/01 18:05:44;;;;;;;47.78;27.80;;;;;;;;;;7604649;19;20025;-71
2023/12/01 18:08:17;;;;;;;47.77;23.53;;;;;;;;;;7605655;19;20243;-71
2023/12/01 18:10:50;;;;;;;41.17;23.63;;;;;;;;;;7609337;19;20401;-71
2023/12/01 18:13:23;;;;;;;39.80;21.67;;;;;;;;;;7601858;19;20021;-71
2023/12/01 18:15:56;;;;;;;38.47;20.75;;;;;;;;;;7606505;19;20014;-71
2023/12/01 18:18:29;;;;;;;40.05;22.10;;;;;;;;;;7611415;19;20664;-71
2023/12/01 18:21:04;;;;;;;42.45;21.95;;;;;;;;;;7607018;19;20056;-71
2023/12/01 18:23:36;;;;;;;40.20;21.80;;;;;;;;;;7610897;19;20019;-71
2023/12/01 18:26:09;;;;;;;43.90;21.47;;;;;;;;;;7602735;19;20120;-70
2023/12/01 18:28:42;;;;;;;39.90;21.55;;;;;;;;;;7603600;19;20038;-70
2023/12/01 18:31:15;;;;;;;43.20;21.15;;;;;;;;;;7606503;19;20060;-73
2023/12/01 18:33:48;;;;;;;40.78;21.05;;;;;;;;;;7610096;19;20039;-72
2023/12/01 18:36:21;;;;;;;44.67;24.90;;;;;;;;;;7595774;19;20038;-73
2023/12/01 18:38:53;;;;;;;50.83;28.50;;;;;;;;;;7611508;19;20055;-71
2023/12/01 18:41:26;;;;;;;45.60;24.55;;;;;;;;;;7606661;19;20019;-72
2023/12/01 18:43:59;;;;;;;48.40;23.93;;;;;;;;;;7608320;19;20010;-72
2023/12/01 18:46:32;;;;;;;42.90;21.97;;;;;;;;;;7600336;19;20299;-71
2023/12/01 18:49:05;;;;;;;46.63;24.05;;;;;;;;;;7601781;19;20029;-72
2023/12/01 18:51:38;;;;;;;41.58;21.48;;;;;;;;;;7607752;19;20064;-72
2023/12/01 18:54:11;;;;;;;;;;;;;;;;;;7608156;19;21019;-71
2023/12/01 18:56:43;;;;;;;36.58;19.75;;;;;;;;;;7609989;19;20246;-73
2023/12/01 18:59:16;;;;;;;37.97;20.65;;;;;;;;;;7603321;19;20003;-72
2023/12/01 19:01:49;;;;;;;42.08;21.08;;;;;;;;;;7610606;19;20014;-72
2023/12/01 19:04:22;;;;;;;40.20;20.52;;;;;;;;;;7601139;19;20611;-71
2023/12/01 19:06:55;;;;;;;40.30;20.30;;;;;;;;;;7612517;19;20007;-71
2023/12/01 19:09:28;;;;;;;37.50;20.23;;;;;;;;;;7619876;19;20023;-71
2023/12/01 19:12:03;;;;;;;41.45;21.52;;;;;;;;;;7640814;19;20011;-71
2023/12/01 19:14:37;;;;;;;43.47;23.42;;;;;;;;;;7625687;19;20021;-72
2023/12/01 19:17:11;;;;;;;40.67;21.25;;;;;;;;;;7600786;19;20042;-72
2023/12/01 19:19:43;;;;;;;41.60;22.33;;;;;;;;;;7605303;19;20078;-72
2023/12/01 19:22:16;;;;;;;44.10;22.83;;;;;;;;;;7602698;19;20022;-72
2023/12/01 19:24:49;;;;;;;41.70;21.27;;;;;;;;;;7605455;19;20019;-71
2023/12/01 19:27:21;;;;;;;37.92;20.20;;;;;;;;;;7599240;19;20509;-72
2023/12/01 19:29:54;;;;;;;39.25;21.00;;;;;;;;;;7600865;19;20024;-72
2023/12/01 19:32:27;;;;;;;39.87;20.90;;;;;;;;;;7604807;19;20375;-71
2023/12/01 19:34:59;;;;;;;44.77;23.23;;;;;;;;;;7611657;19;20283;-72
2023/12/01 19:37:32;;;;;;;38.57;20.73;;;;;;;;;;7594335;19;20135;-72
2023/12/01 19:40:06;;;;;;;35.97;20.25;;;;;;;;;;7605431;19;20014;-71
2023/12/01 19:42:38;;;;;;;46.85;24.88;;;;;;;;;;7603958;19;20042;-72
2023/12/01 19:45:11;;;;;;;38.97;23.07;;;;;;;;;;7603113;19;20006;-71
2023/12/01 19:47:44;;;;;;;39.83;21.07;;;;;;;;;;7605560;19;20018;-72
2023/12/01 19:50:17;;;;;;;35.97;20.00;;;;;;;;;;7601164;19;20026;-71
2023/12/01 19:52:49;;;;;;;37.10;20.58;;;;;;;;;;7603455;19;20018;-72
2023/12/01 19:55:25;;;;;;;40.90;21.13;;;;;;;;;;7602115;19;20373;-71
2023/12/01 19:57:58;;;;;;;42.25;21.55;;;;;;;;;;7602473;19;20035;-71
2023/12/01 20:00:31;;;;;;;40.27;21.67;;;;;;;;;;7603161;19;20014;-72
2023/12/01 20:03:04;;;;;;;46.08;23.95;;;;;;;;;;7607918;19;20477;-71
2023/12/01 20:05:37;;;;;;;41.85;22.85;;;;;;;;;;7604224;19;20010;-71
2023/12/01 20:08:09;;;;;;;44.03;23.67;;;;;;;;;;7602004;19;20064;-71
2023/12/01 20:10:43;;;;;;;44.85;23.60;;;;;;;;;;7603952;19;20287;-71
2023/12/01 20:13:15;;;;;;;35.50;20.53;;;;;;;;;;7597790;19;20117;-71
2023/12/01 20:15:48;;;;;;;43.20;22.13;;;;;;;;;;7602965;19;20626;-71
2023/12/01 20:18:21;;;;;;;45.85;23.33;;;;;;;;;;7604812;19;20108;-71
2023/12/01 20:20:53;;;;;;;45.22;22.77;;;;;;;;;;7601680;19;20025;-71
2023/12/01 20:23:26;;;;;;;36.30;20.50;;;;;;;;;;7604671;19;20018;-70
2023/12/01 20:26:00;;;;;;;43.60;22.37;;;;;;;;;;7606484;19;20019;-71
2023/12/01 20:28:33;;;;;;;53.40;26.98;;;;;;;;;;7600361;19;20014;-70
2023/12/01 20:31:06;;;;;;;45.42;24.98;;;;;;;;;;7601288;19;20026;-71
2023/12/01 20:33:39;;;;;;;40.70;23.33;;;;;;;;;;7601368;19;20018;-71
2023/12/01 20:36:12;;;;;;;42.05;23.13;;;;;;;;;;7604248;19;20014;-71
2023/12/01 20:38:46;;;;;;;46.60;23.60;;;;;;;;;;7607829;19;20034;-71
2023/12/01 20:41:19;;;;;;;38.05;22.05;;;;;;;;;;7597635;19;20287;-70
2023/12/01 20:43:51;;;;;;;41.00;21.80;;;;;;;;;;7601199;19;20022;-71
2023/12/01 20:46:24;;;;;;;41.30;21.70;;;;;;;;;;7603611;19;20018;-71
2023/12/01 20:48:57;;;;;;;41.35;22.05;;;;;;;;;;7606114;19;20820;-71
2023/12/01 20:51:29;;;;;;;50.67;23.67;;;;;;;;;;7600710;19;20048;-70
2023/12/01 20:54:02;;;;;;;40.50;21.25;;;;;;;;;;7602125;19;20287;-71
2023/12/01 20:56:36;;;;;;;33.00;19.35;;;;;;;;;;7597193;19;20667;-70
2023/12/01 20:59:10;;;;;;;39.63;22.50;;;;;;;;;;7604760;19;20025;-70
2023/12/01 21:01:43;;;;;;;45.40;23.50;;;;;;;;;;7599839;19;20065;-70
2023/12/01 21:04:16;;;;;;;41.75;21.90;;;;;;;;;;7601949;19;21524;-70
2023/12/01 21:06:48;;;;;;;42.60;21.58;;;;;;;;;;7604975;19;20056;-70
2023/12/01 21:09:21;;;;;;;48.25;24.08;;;;;;;;;;7499042;19;20694;-70
2023/12/01 21:11:54;;;;;;;43.13;22.08;;;;;;;;;;7529117;19;20545;-71
2023/12/01 21:14:27;;;;;;;45.13;22.13;;;;;;;;;;7547386;19;20018;-70
2023/12/01 21:17:00;;;;;;;48.63;22.63;;;;;;;;;;7565564;19;20653;-71
2023/12/01 21:19:33;;;;;;;37.75;20.35;;;;;;;;;;7558065;19;20014;-70
2023/12/01 21:22:06;;;;;;;38.85;20.63;;;;;;;;;;7573895;19;20022;-70
2023/12/01 21:24:39;;;;;;;38.10;19.33;;;;;;;;;;7582817;19;20021;-70
2023/12/01 21:27:12;;;;;;;38.67;20.20;;;;;;;;;;7580892;19;20484;-69
2023/12/01 21:29:46;;;;;;;31.88;17.88;;;;;;;;;;7583926;19;20014;-71
2023/12/01 21:32:22;;;;;;;31.80;17.00;;;;;;;;;;7590950;19;20094;-70
2023/12/01 21:34:54;;;;;;;33.35;17.92;;;;;;;;;;7589528;19;20412;-70
2023/12/01 21:37:27;;;;;;;33.63;18.55;;;;;;;;;;7574957;19;20444;-70
2023/12/01 21:40:00;;;;;;;36.17;19.38;;;;;;;;;;7562364;19;20022;-69
2023/12/01 21:42:34;;;;;;;29.55;16.83;;;;;;;;;;7571959;19;22278;-70
2023/12/01 21:45:07;;;;;;;36.85;18.38;;;;;;;;;;7593026;19;20010;-69
2023/12/01 21:47:40;;;;;;;30.25;16.77;;;;;;;;;;7564197;19;20775;-69
2023/12/01 21:50:12;;;;;;;29.13;16.27;;;;;;;;;;7580575;19;20838;-69
2023/12/01 21:52:45;;;;;;;38.77;20.03;;;;;;;;;;7551051;19;20307;-69
2023/12/01 21:55:18;;;;;;;38.38;19.55;;;;;;;;;;7572473;19;20271;-68
2023/12/01 21:57:53;;;;;;;29.50;16.33;;;;;;;;;;7566117;19;20531;-69
2023/12/01 22:00:28;;;;;;;34.75;17.65;;;;;;;;;;7576179;19;21202;-71
2023/12/01 22:03:00;;;;;;;33.33;18.15;;;;;;;;;;7562275;19;20010;-70
2023/12/01 22:05:34;;;;;;;30.60;16.77;;;;;;;;;;7570399;19;20078;-69
2023/12/01 22:08:08;;;;;;;29.30;15.73;;;;;;;;;;7565802;19;20015;-71
